ニース/コート・ダジュール の空港の天気 - METARとTAF

コート・ダジュール空港(ニース) ( LFMN / NCE ) - フランス ニース
飛行場実況気象(Metar)
観測時間01/20 03:30 CET (01/20 02:30 UTC)
風向・風速西 2m/s
視程10km以上
天気現象
全天の8割程度の雲 雲底高度 1220m
気温7℃
湿度87%
気圧1013hPa
METARLFMN 200230Z 28003KT 9999 BKN040 07/05 Q1013 NOSIG
過去の天気等 Google飛行場航空写真 Wunderground天気予報

過去48時間のMETAR

飛行場予報(TAF)
発表時間: 1/20 03:00 CET (1/20 02:00 UTC)
予報対象時間: 20日4時 CET ~ 21日10時 CET
風向・風速北北西 5m/s
視程10km以上
全天の8割程度の雲 雲底高度 1070m
20日10時 CET ~ 20日12時 CET に徐々に
風向・風速東 5m/s
20日18時 CET ~ 20日20時 CET に徐々に
風向・風速北北西 5m/s
少しの雲 雲底高度 1220m
21日3時 CET ~ 21日5時 CET に徐々に
なし
TAF LFMN 200200Z 2003/2109 34010KT 9999 BKN035
BECMG 2009/2011 10010KT
BECMG 2017/2019 34010KT FEW040
BECMG 2102/2104 NSC